Time;durP1;ratioP1;P1;durP2;ratioP2;P2;SDS_P1;SDS_P2;PMS_P1;PMS_P2;Temp;Humidity;BMP_temperature;BMP_pressure;BME280_temperature;BME280_humidity;BME280_pressure;Samples;Min_cycle;Max_cycle;Signal;HPM_P1;HPM_P2
2024/01/31 00:01:16;;;;;;;;;;;;;;;1.17;66.84;101589.59;4388292;32;34518;-88
2024/01/31 00:03:45;;;;;;;;;;;;;;;0.87;67.78;101592.19;4387880;32;35304;-87
2024/01/31 00:06:16;;;;;;;;;;;;;;;1.02;66.41;101590.50;4386489;32;34070;-87
2024/01/31 00:08:46;;;;;;;;;;;;;;;0.83;67.30;101587.69;4391135;32;32902;-88
2024/01/31 00:11:15;;;;;;;;;;;;;;;0.72;66.86;101581.09;4386663;32;33395;-89
2024/01/31 00:13:44;;;;;;;;;;;;;;;0.60;67.47;101584.72;4386618;32;35105;-88
2024/01/31 00:16:14;;;;;;;;;;;;;;;0.66;67.46;101585.87;4390965;32;34262;-88
2024/01/31 00:18:44;;;;;;;;;;;;;;;0.46;67.53;101584.69;4391357;32;33729;-89
2024/01/31 00:21:19;;;;;;;;;;;;;;;0.55;67.89;101585.25;4385284;32;34642;-87
2024/01/31 00:23:52;;;;;;;;;;;;;;;0.55;67.79;101582.69;4386730;32;32889;-87
2024/01/31 00:26:21;;;;;;;;;;;;;;;0.67;67.03;101580.81;4389125;32;33957;-90
2024/01/31 00:28:50;;;;;;;;;;;;;;;0.64;67.15;101584.09;4386559;32;33712;-88
2024/01/31 00:31:22;;;;;;;;;;;;;;;0.71;66.79;101580.22;4390848;32;33953;-89
2024/01/31 00:33:55;;;;;;;;;;;;;;;0.48;67.39;101583.13;4386192;32;33458;-87
2024/01/31 00:36:29;;;;;;;;;;;;;;;0.26;67.26;101581.00;4387864;32;34519;-87
2024/01/31 00:38:59;;;;;;;;;;;;;;;0.37;67.24;101578.28;4386151;32;34373;-88
2024/01/31 00:41:29;;;;;;;;;;;;;;;0.30;67.29;101582.94;4387040;32;33664;-88
2024/01/31 00:44:00;;;;;;;;;;;;;;;0.38;67.04;101581.69;4387827;32;34488;-89
2024/01/31 00:46:29;;;;;;;;;;;;;;;0.44;66.98;101588.88;4386541;32;34683;-87
2024/01/31 00:48:58;;;;;;;;;;;;;;;0.31;67.48;101580.47;4384462;32;32879;-88
2024/01/31 00:51:27;;;;;;;;;;;;;;;0.59;66.50;101585.50;4385487;32;33755;-89
2024/01/31 00:53:57;;;;;;;;;;;;;;;0.59;66.62;101576.97;4389240;32;33724;-88
2024/01/31 00:56:27;;;;;;;;;;;;;;;0.46;66.67;101577.94;4387090;32;34682;-88
2024/01/31 00:58:56;;;;;;;;;;;;;;;0.42;66.98;101576.00;4384907;32;32013;-88
2024/01/31 01:01:26;;;;;;;;;;;;;;;0.41;66.67;101571.66;4386182;32;33770;-87
2024/01/31 01:04:03;;;;;;;;;;;;;;;0.40;66.39;101570.78;4389460;32;33736;-89
2024/01/31 01:06:32;;;;;;;;;;;;;;;0.54;66.29;101574.16;4390454;32;34692;-87
2024/01/31 01:09:05;;;;;;;;;;;;;;;0.43;66.05;101570.09;4385824;32;32936;-88
2024/01/31 01:11:33;;;;;;;;;;;;;;;0.34;66.63;101565.34;4384593;32;35010;-87
2024/01/31 01:14:02;;;;;;;;;;;;;;;0.19;66.68;101566.97;4388027;32;34071;-86
2024/01/31 01:16:31;;;;;;;;;;;;;;;0.27;66.50;101565.78;4390454;32;34172;-88
2024/01/31 01:19:01;;;;;;;;;;;;;;;0.03;67.16;101572.00;4386777;32;33190;-88
2024/01/31 01:21:32;;;;;;;;;;;;;;;0.18;66.91;101561.00;4400697;32;34064;-87
2024/01/31 01:24:08;;;;;;;;;;;;;;;0.29;66.21;101566.75;4400070;32;34790;-88
2024/01/31 01:26:40;;;;;;;;;;;;;;;0.22;66.47;101562.06;4390341;32;33744;-88
2024/01/31 01:29:10;;;;;;;;;;;;;;;0.24;66.17;101560.47;4405144;32;33279;-86
2024/01/31 01:31:39;;;;;;;;;;;;;;;0.09;66.63;101560.44;4400994;32;34834;-87
2024/01/31 01:34:12;;;;;;;;;;;;;;;0.24;65.87;101552.81;4400598;32;33607;-88
2024/01/31 01:36:41;;;;;;;;;;;;;;;0.03;66.59;101554.12;4400921;32;33709;-88
2024/01/31 01:39:12;;;;;;;;;;;;;;;0.10;66.12;101557.12;4405401;32;32744;-86
2024/01/31 01:41:41;;;;;;;;;;;;;;;0.03;66.14;101559.22;4400948;32;34519;-88
2024/01/31 01:44:14;;;;;;;;;;;;;;;0.09;66.37;101546.81;4414029;32;34059;-87
2024/01/31 01:46:43;;;;;;;;;;;;;;;0.19;65.78;101542.37;4415979;32;33487;-88
2024/01/31 01:49:13;;;;;;;;;;;;;;;0.04;66.23;101553.31;4415586;32;32781;-87
2024/01/31 01:51:41;;;;;;;;;;;;;;;0.01;66.01;101548.06;4407616;32;33818;-88
2024/01/31 01:54:16;;;;;;;;;;;;;;;-0.01;66.26;101548.81;4400743;32;34175;-87
2024/01/31 01:56:46;;;;;;;;;;;;;;;-0.07;66.51;101538.28;4405960;32;34180;-89
2024/01/31 01:59:15;;;;;;;;;;;;;;;-0.07;66.07;101535.72;4402394;32;32903;-87
2024/01/31 02:01:44;;;;;;;;;;;;;;;-0.26;66.50;101538.84;4407201;32;34143;-89
2024/01/31 02:04:13;;;;;;;;;;;;;;;-0.25;66.59;101529.50;4405159;32;34552;-88
2024/01/31 02:06:45;;;;;;;;;;;;;;;-0.28;67.05;101522.56;4406166;32;33902;-87
2024/01/31 02:09:21;;;;;;;;;;;;;;;-0.13;66.09;101519.16;4402423;32;33617;-89
2024/01/31 02:11:49;;;;;;;;;;;;;;;-0.22;65.86;101516.94;4402211;32;33899;-86
2024/01/31 02:14:19;;;;;;;;;;;;;;;-0.11;66.08;101515.03;4406523;32;33499;-86
2024/01/31 02:16:51;;;;;;;;;;;;;;;-0.13;65.79;101509.84;4402079;32;33707;-89
2024/01/31 02:19:21;;;;;;;;;;;;;;;-0.22;66.05;101514.38;4400704;32;34151;-87
2024/01/31 02:21:50;;;;;;;;;;;;;;;0.12;65.72;101506.16;4404306;32;34069;-89
2024/01/31 02:24:25;;;;;;;;;;;;;;;0.05;65.70;101511.69;4404714;32;34749;-86
2024/01/31 02:26:54;;;;;;;;;;;;;;;-0.11;66.19;101512.47;4406970;32;34297;-87
2024/01/31 02:29:23;;;;;;;;;;;;;;;0.08;66.02;101509.34;4388800;32;32615;-86
2024/01/31 02:31:52;;;;;;;;;;;;;;;-0.11;65.98;101509.94;4402488;32;34099;-87
2024/01/31 02:34:22;;;;;;;;;;;;;;;-0.16;66.80;101514.75;4402862;32;34272;-88
2024/01/31 02:36:54;;;;;;;;;;;;;;;-0.30;67.26;101503.72;4406994;32;33849;-88
2024/01/31 02:39:30;;;;;;;;;;;;;;;-0.26;67.51;101498.03;4402471;32;33528;-87
2024/01/31 02:41:59;;;;;;;;;;;;;;;-0.29;67.54;101496.94;4403480;32;33632;-87
2024/01/31 02:44:33;;;;;;;;;;;;;;;-0.31;67.46;101494.34;4418841;32;34087;-87
2024/01/31 02:47:02;;;;;;;;;;;;;;;-0.23;67.01;101498.19;4420257;32;34142;-89
2024/01/31 02:49:31;;;;;;;;;;;;;;;-0.13;66.80;101489.41;4422384;32;33298;-87
2024/01/31 02:51:59;;;;;;;;;;;;;;;-0.21;67.14;101490.66;4406947;32;34217;-88
2024/01/31 02:54:37;;;;;;;;;;;;;;;-0.11;66.90;101484.44;4402544;32;35031;-87
2024/01/31 02:57:06;;;;;;;;;;;;;;;-0.14;66.70;101485.13;4403112;32;33622;-87
2024/01/31 02:59:35;;;;;;;;;;;;;;;-0.09;66.42;101483.72;4406835;32;33491;-87
2024/01/31 03:02:05;;;;;;;;;;;;;;;-0.02;66.11;101478.19;4401154;32;34328;-88
2024/01/31 03:04:35;;;;;;;;;;;;;;;-0.47;67.82;101489.09;4401831;32;34337;-87
2024/01/31 03:07:04;;;;;;;;;;;;;;;-0.24;67.06;101482.84;4402869;32;34769;-87
2024/01/31 03:09:36;;;;;;;;;;;;;;;-0.47;67.50;101489.97;4394059;32;32961;-86
2024/01/31 03:12:05;;;;;;;;;;;;;;;-0.30;67.00;101500.31;4405983;32;33924;-88
2024/01/31 03:14:35;;;;;;;;;;;;;;;-0.31;67.41;101499.44;4401671;32;34667;-88
2024/01/31 03:17:04;;;;;;;;;;;;;;;-0.32;67.31;101499.31;4401881;32;34759;-88
2024/01/31 03:19:41;;;;;;;;;;;;;;;-0.18;66.63;101490.81;4398742;32;33472;-89
2024/01/31 03:22:10;;;;;;;;;;;;;;;-0.27;66.94;101497.94;4406192;32;33698;-88
2024/01/31 03:24:41;;;;;;;;;;;;;;;-0.06;66.03;101498.31;4405740;32;33895;-86
2024/01/31 03:27:09;;;;;;;;;;;;;;;-0.01;65.62;101495.25;4402071;32;33563;-87
2024/01/31 03:29:41;;;;;;;;;;;;;;;-0.21;66.26;101495.75;4401850;32;32925;-86
2024/01/31 03:32:10;;;;;;;;;;;;;;;-0.27;66.35;101491.16;4400754;32;33538;-87
2024/01/31 03:34:41;;;;;;;;;;;;;;;-0.31;66.46;101480.72;4396522;32;34843;-87
2024/01/31 03:37:11;;;;;;;;;;;;;;;-0.39;66.91;101484.44;4406601;32;34203;-88
2024/01/31 03:39:50;;;;;;;;;;;;;;;-0.39;66.81;101487.00;4400720;32;32891;-89
2024/01/31 03:42:19;;;;;;;;;;;;;;;-0.62;66.66;101483.09;4401742;32;33745;-87
2024/01/31 03:44:57;;;;;;;;;;;;;;;-0.37;66.66;101476.09;4403629;32;33438;-89
2024/01/31 03:47:29;;;;;;;;;;;;;;;-0.37;66.38;101483.75;4406044;32;33905;-87
2024/01/31 03:49:57;;;;;;;;;;;;;;;-0.36;66.36;101487.19;4401672;32;32990;-88
2024/01/31 03:55:02;;;;;;;;;;;;;;;-0.34;66.44;101485.59;4401836;32;33937;-88
2024/01/31 03:57:34;;;;;;;;;;;;;;;-0.20;65.70;101491.53;4397673;32;33038;-88
2024/01/31 04:00:05;;;;;;;;;;;;;;;-0.29;66.21;101486.75;4406026;32;33028;-87
2024/01/31 04:02:40;;;;;;;;;;;;;;;-0.26;66.34;101492.94;4397824;32;34206;-87
2024/01/31 04:05:20;;;;;;;;;;;;;;;-0.04;65.21;101489.09;4400827;32;33729;-87
2024/01/31 04:07:49;;;;;;;;;;;;;;;-0.29;65.98;101491.84;4391596;32;33264;-87
2024/01/31 04:10:27;;;;;;;;;;;;;;;-0.22;65.08;101492.34;4403100;32;33717;-90
2024/01/31 04:12:58;;;;;;;;;;;;;;;-0.30;65.28;101495.19;4406608;32;33854;-86
2024/01/31 04:15:28;;;;;;;;;;;;;;;-0.35;65.49;101494.06;4402383;32;33971;-88
2024/01/31 04:17:57;;;;;;;;;;;;;;;-0.30;65.03;101505.41;4401838;32;33635;-89
2024/01/31 04:20:26;;;;;;;;;;;;;;;-0.41;65.70;101502.22;4400101;32;33122;-87
2024/01/31 04:22:55;;;;;;;;;;;;;;;-0.49;65.74;101509.38;4406082;32;33669;-87
2024/01/31 04:25:30;;;;;;;;;;;;;;;-0.79;66.71;101505.88;4403166;32;33697;-88
2024/01/31 04:28:05;;;;;;;;;;;;;;;-0.62;66.01;101506.03;4403691;32;33858;-88
2024/01/31 04:30:34;;;;;;;;;;;;;;;-0.41;65.25;101507.31;4400829;32;33545;-88
2024/01/31 04:33:04;;;;;;;;;;;;;;;-0.51;65.44;101505.88;4401951;32;33751;-87
2024/01/31 04:35:33;;;;;;;;;;;;;;;-0.48;65.26;101503.53;4371854;32;1105968;-87
2024/01/31 04:38:02;;;;;;;;;;;;;;;-0.56;65.40;101511.47;4402798;32;34896;-87
2024/01/31 04:40:34;;;;;;;;;;;;;;;-0.64;65.42;101511.00;4401429;32;33779;-87
2024/01/31 04:43:05;;;;;;;;;;;;;;;-0.81;65.93;101501.47;4408461;32;33138;-86
2024/01/31 04:45:35;;;;;;;;;;;;;;;-0.83;66.36;101500.47;4412604;32;34660;-87
2024/01/31 04:48:10;;;;;;;;;;;;;;;-0.71;66.00;101513.97;4401767;32;33870;-88
2024/01/31 04:50:39;;;;;;;;;;;;;;;-0.80;65.99;101508.31;4401573;32;33190;-89
2024/01/31 04:53:11;;;;;;;;;;;;;;;-0.71;65.73;101503.78;4401226;32;33632;-87
2024/01/31 04:55:41;;;;;;;;;;;;;;;-0.74;65.67;101499.38;4401499;32;33682;-89
2024/01/31 04:58:12;;;;;;;;;;;;;;;-0.63;65.25;101497.47;4405889;32;34620;-86
2024/01/31 05:00:41;;;;;;;;;;;;;;;-0.58;65.42;101497.75;4399347;32;33583;-87
2024/01/31 05:03:11;;;;;;;;;;;;;;;-0.81;66.37;101491.28;4400946;32;33858;-86
2024/01/31 05:05:40;;;;;;;;;;;;;;;-0.60;65.54;101494.22;4390236;32;32162;-88
2024/01/31 05:08:09;;;;;;;;;;;;;;;-0.76;65.91;101490.75;4405907;32;34468;-88
2024/01/31 05:10:44;;;;;;;;;;;;;;;-0.83;66.50;101495.38;4401331;32;34670;-86
2024/01/31 05:13:15;;;;;;;;;;;;;;;-0.54;65.20;101500.59;4401303;32;34517;-86
2024/01/31 05:15:44;;;;;;;;;;;;;;;-0.56;65.36;101499.59;4403248;32;33885;-88
2024/01/31 05:18:18;;;;;;;;;;;;;;;-0.54;65.47;101502.25;4401937;32;33222;-89
2024/01/31 05:20:47;;;;;;;;;;;;;;;-0.51;65.15;101503.34;4405464;32;32744;-89
2024/01/31 05:23:17;;;;;;;;;;;;;;;-0.76;66.20;101502.62;4412977;32;34827;-87
2024/01/31 05:25:47;;;;;;;;;;;;;;;-0.55;65.41;101506.47;4401990;32;34896;-88
2024/01/31 05:28:26;;;;;;;;;;;;;;;-0.96;66.19;101506.50;4401052;32;33719;-86
2024/01/31 05:30:55;;;;;;;;;;;;;;;-0.88;66.76;101502.75;4401327;32;34179;-87
2024/01/31 05:33:32;;;;;;;;;;;;;;;-0.76;65.85;101497.53;4406988;32;34655;-87
2024/01/31 05:36:01;;;;;;;;;;;;;;;-0.76;65.73;101502.62;4402587;32;34248;-86
2024/01/31 05:38:31;;;;;;;;;;;;;;;-0.90;66.40;101504.31;4403803;32;34058;-87
2024/01/31 05:41:03;;;;;;;;;;;;;;;-0.89;66.62;101504.41;4403017;32;33003;-85
2024/01/31 05:43:32;;;;;;;;;;;;;;;-0.74;65.69;101509.56;4411763;32;35083;-87
2024/01/31 05:46:03;;;;;;;;;;;;;;;-0.86;66.18;101504.59;4408457;32;33797;-89
2024/01/31 05:48:33;;;;;;;;;;;;;;;-0.94;66.27;101503.25;4403144;32;34057;-89
2024/01/31 05:51:02;;;;;;;;;;;;;;;-0.82;66.17;101502.22;4408892;32;33159;-89
2024/01/31 05:53:31;;;;;;;;;;;;;;;-1.11;66.60;101498.78;4409831;32;34821;-88
2024/01/31 05:56:03;;;;;;;;;;;;;;;-0.74;65.59;101493.41;4408033;32;33648;-88
2024/01/31 05:58:37;;;;;;;;;;;;;;;-0.71;65.22;101491.03;4408038;32;34444;-87
2024/01/31 06:01:06;;;;;;;;;;;;;;;-0.73;65.04;101496.03;4410465;32;34011;-85
2024/01/31 06:03:40;;;;;;;;;;;;;;;-0.89;65.65;101491.69;4412869;32;34345;-89
2024/01/31 06:06:09;;;;;;;;;;;;;;;-0.74;65.15;101491.72;4411452;32;33536;-87
2024/01/31 06:08:39;;;;;;;;;;;;;;;-0.85;65.61;101487.63;4418094;32;33603;-87
2024/01/31 06:11:15;;;;;;;;;;;;;;;-1.10;66.49;101488.66;4407094;32;33442;-86
2024/01/31 06:13:44;;;;;;;;;;;;;;;-0.78;65.91;101488.91;4407936;32;34208;-87
2024/01/31 06:16:14;;;;;;;;;;;;;;;-1.05;65.88;101488.97;4406591;32;34048;-86
2024/01/31 06:18:43;;;;;;;;;;;;;;;-0.93;66.07;101493.94;4405160;32;33719;-87
2024/01/31 06:21:16;;;;;;;;;;;;;;;-0.72;65.28;101492.72;4393577;32;33613;-86
2024/01/31 06:23:46;;;;;;;;;;;;;;;-0.70;65.09;101497.87;4403224;32;34770;-88
2024/01/31 06:26:19;;;;;;;;;;;;;;;-0.87;65.64;101499.41;4406401;32;34016;-86
2024/01/31 06:28:48;;;;;;;;;;;;;;;-0.95;65.84;101498.91;4402848;32;34811;-89
2024/01/31 06:31:25;;;;;;;;;;;;;;;-1.03;66.27;101497.56;4408541;32;33298;-86
2024/01/31 06:33:54;;;;;;;;;;;;;;;-0.80;65.78;101501.53;4406612;32;33823;-89
2024/01/31 06:36:32;;;;;;;;;;;;;;;-0.59;64.81;101509.62;4404430;32;33628;-88
2024/01/31 06:39:04;;;;;;;;;;;;;;;-0.66;64.92;101497.28;4398325;32;33802;-87
2024/01/31 06:41:36;;;;;;;;;;;;;;;-0.79;65.51;101503.31;4408221;32;32893;-88
2024/01/31 06:44:04;;;;;;;;;;;;;;;-0.74;65.45;101512.13;4408633;32;33939;-86
2024/01/31 06:46:34;;;;;;;;;;;;;;;-0.73;65.55;101507.91;4404469;32;33767;-87
2024/01/31 06:49:04;;;;;;;;;;;;;;;-0.68;65.36;101509.06;4402790;32;34464;-86
2024/01/31 06:51:33;;;;;;;;;;;;;;;-0.91;66.50;101512.75;4401963;32;32589;-90
2024/01/31 06:54:04;;;;;;;;;;;;;;;-1.01;66.86;101508.75;4403586;32;34366;-87
2024/01/31 06:56:37;;;;;;;;;;;;;;;-0.89;66.52;101509.50;4405210;32;33613;-87
2024/01/31 06:59:06;;;;;;;;;;;;;;;-0.73;66.18;101505.34;4403497;32;34438;-87
2024/01/31 07:01:35;;;;;;;;;;;;;;;-0.72;66.32;101507.13;4402206;32;33826;-89
2024/01/31 07:04:11;;;;;;;;;;;;;;;-0.54;65.85;101505.69;4403571;32;34774;-87
2024/01/31 07:06:39;;;;;;;;;;;;;;;-0.38;65.11;101502.41;4407146;32;35025;-87
2024/01/31 07:09:11;;;;;;;;;;;;;;;-0.35;65.17;101506.81;4402308;32;34673;-87
2024/01/31 07:11:41;;;;;;;;;;;;;;;-0.23;64.96;101499.88;4401960;32;32853;-88
2024/01/31 07:14:11;;;;;;;;;;;;;;;-0.18;64.96;101501.03;4402451;32;33979;-87
2024/01/31 07:16:40;;;;;;;;;;;;;;;-0.06;64.79;101499.19;4406997;32;34045;-89
2024/01/31 07:19:15;;;;;;;;;;;;;;;-0.20;65.50;101509.38;4402121;32;34798;-86
2024/01/31 07:21:44;;;;;;;;;;;;;;;-0.06;65.48;101501.75;4402599;32;33086;-88
2024/01/31 07:24:16;;;;;;;;;;;;;;;0.01;65.47;101510.66;4407607;32;33941;-87
2024/01/31 07:27:00;;;;;;;;;;;;;;;0.05;65.54;101510.06;4410587;32;34845;-87
2024/01/31 07:29:29;;;;;;;;;;;;;;;0.12;65.98;101508.72;4416308;32;34395;-88
2024/01/31 07:32:00;;;;;;;;;;;;;;;0.26;65.94;101515.50;4395884;32;32636;-88
2024/01/31 07:34:29;;;;;;;;;;;;;;;0.27;66.57;101508.75;4408739;32;33792;-89
2024/01/31 07:36:59;;;;;;;;;;;;;;;0.31;66.71;101514.09;4409845;32;34041;-87
2024/01/31 07:39:27;;;;;;;;;;;;;;;0.41;66.65;101508.75;4405370;32;33269;-88
2024/01/31 07:42:05;;;;;;;;;;;;;;;0.40;67.49;101514.63;4420241;32;33522;-89
2024/01/31 07:44:35;;;;;;;;;;;;;;;0.45;67.62;101511.47;4401143;32;33746;-88
2024/01/31 07:47:04;;;;;;;;;;;;;;;0.71;67.37;101521.47;4407054;32;34423;-86
2024/01/31 07:49:32;;;;;;;;;;;;;;;0.68;67.85;101521.31;4404112;32;34166;-88
2024/01/31 07:52:02;;;;;;;;;;;;;;;1.10;66.98;101521.91;4406774;32;34086;-87
2024/01/31 07:54:33;;;;;;;;;;;;;;;1.20;66.87;101516.47;4409113;32;34918;-88
2024/01/31 07:57:06;;;;;;;;;;;;;;;0.89;68.57;101515.63;4411003;32;34629;-86
2024/01/31 07:59:36;;;;;;;;;;;;;;;0.99;69.17;101528.09;4405751;32;32169;-89
2024/01/31 08:02:08;;;;;;;;;;;;;;;1.24;68.79;101520.97;4409009;32;34236;-86
2024/01/31 08:04:38;;;;;;;;;;;;;;;1.38;68.82;101515.75;4412766;32;33832;-88
2024/01/31 08:07:08;;;;;;;;;;;;;;;1.33;69.58;101515.50;4407397;32;33945;-86
2024/01/31 08:09:40;;;;;;;;;;;;;;;1.78;68.12;101520.38;4409361;32;33679;-88
2024/01/31 08:12:13;;;;;;;;;;;;;;;1.70;69.02;101520.84;4407740;32;33853;-87
2024/01/31 08:14:42;;;;;;;;;;;;;;;1.93;68.30;101516.03;4415301;32;35714;-88
2024/01/31 08:17:11;;;;;;;;;;;;;;;1.81;70.21;101517.97;4408216;32;34674;-88
2024/01/31 08:19:41;;;;;;;;;;;;;;;2.05;69.57;101519.19;4411164;32;34631;-89
2024/01/31 08:22:11;;;;;;;;;;;;;;;2.17;69.71;101512.97;4417080;32;33139;-88
2024/01/31 08:24:40;;;;;;;;;;;;;;;2.15;70.40;101523.16;4405619;32;36568;-87
2024/01/31 08:27:19;;;;;;;;;;;;;;;2.10;71.10;101515.22;4413579;32;33409;-87
2024/01/31 08:29:49;;;;;;;;;;;;;;;2.37;70.30;101504.59;4412096;32;33173;-88
2024/01/31 08:32:24;;;;;;;;;;;;;;;2.49;69.98;101504.28;4409321;32;34154;-88
2024/01/31 08:34:54;;;;;;;;;;;;;;;2.50;70.62;101499.25;4412119;32;34859;-88
2024/01/31 08:37:23;;;;;;;;;;;;;;;2.73;69.80;101489.22;4409968;32;34035;-89
2024/01/31 08:39:52;;;;;;;;;;;;;;;2.62;70.88;101493.84;4412361;32;34697;-89
2024/01/31 08:42:28;;;;;;;;;;;;;;;2.43;72.42;101498.88;4407065;32;33154;-87
2024/01/31 08:44:59;;;;;;;;;;;;;;;2.10;71.59;101499.88;4408392;32;33799;-87
2024/01/31 08:47:28;;;;;;;;;;;;;;;2.75;71.30;101492.72;4402266;32;34194;-87
2024/01/31 08:49:57;;;;;;;;;;;;;;;2.89;71.13;101498.53;4406224;32;34184;-89
2024/01/31 08:52:32;;;;;;;;;;;;;;;3.03;70.89;101494.91;4391114;32;32219;-89
2024/01/31 08:55:01;;;;;;;;;;;;;;;3.41;67.96;101491.53;4412159;32;34665;-88
2024/01/31 08:57:30;;;;;;;;;;;;;;;3.24;69.65;101491.56;4416749;32;34848;-88
2024/01/31 09:00:07;;;;;;;;;;;;;;;2.49;71.14;101483.78;4412694;32;34580;-87
2024/01/31 09:02:36;;;;;;;;;;;;;;;3.50;67.31;101487.59;4413571;32;33108;-88
2024/01/31 09:05:10;;;;;;;;;;;;;;;3.53;67.84;101480.94;4406552;32;34270;-89
2024/01/31 09:07:39;;;;;;;;;;;;;;;3.10;70.63;101481.56;4404315;32;33924;-88
2024/01/31 09:10:08;;;;;;;;;;;;;;;3.38;69.59;101490.50;4403154;32;34681;-87
2024/01/31 09:12:37;;;;;;;;;;;;;;;3.09;71.25;101486.62;4410156;32;32942;-89
2024/01/31 09:15:13;;;;;;;;;;;;;;;3.24;71.98;101482.22;4414297;32;34026;-89
2024/01/31 09:17:45;;;;;;;;;;;;;;;3.43;71.12;101483.88;4420130;32;33991;-90
2024/01/31 09:20:18;;;;;;;;;;;;;;;3.30;72.32;101491.84;4402564;32;32130;-89
2024/01/31 09:22:48;;;;;;;;;;;;;;;3.67;70.67;101486.66;4402875;32;34301;-89
2024/01/31 09:25:18;;;;;;;;;;;;;;;3.76;70.85;101483.63;4414803;32;34492;-89
2024/01/31 09:27:48;;;;;;;;;;;;;;;3.89;70.53;101483.34;4405068;32;34100;-89
2024/01/31 09:30:23;;;;;;;;;;;;;;;4.18;70.28;101489.72;4403221;32;34108;-89
2024/01/31 09:32:58;;;;;;;;;;;;;;;4.35;70.16;101492.97;4402906;32;33000;-88
2024/01/31 09:35:28;;;;;;;;;;;;;;;4.52;69.72;101487.63;4404519;32;34440;-89
2024/01/31 09:37:57;;;;;;;;;;;;;;;4.63;68.99;101481.22;4407699;32;33845;-89
2024/01/31 09:40:26;;;;;;;;;;;;;;;4.79;67.79;101485.28;4403137;32;34865;-89
2024/01/31 09:42:57;;;;;;;;;;;;;;;4.89;66.44;101479.69;4396183;32;34278;-89
2024/01/31 09:45:29;;;;;;;;;;;;;;;4.37;67.13;101477.59;4387717;32;33428;-90
2024/01/31 09:47:58;;;;;;;;;;;;;;;4.62;66.44;101470.06;4404371;32;33733;-88
2024/01/31 09:50:29;;;;;;;;;;;;;;;4.94;65.15;101472.16;4403781;32;34835;-90
2024/01/31 09:52:59;;;;;;;;;;;;;;;4.98;64.89;101468.84;4402580;32;33332;-89
2024/01/31 09:55:28;;;;;;;;;;;;;;;5.06;63.57;101468.34;4406994;32;34348;-90
2024/01/31 09:57:56;;;;;;;;;;;;;;;5.09;62.91;101460.72;4408317;32;33687;-91
2024/01/31 10:00:31;;;;;;;;;;;;;;;5.16;62.75;101454.13;4407824;32;34720;-88
2024/01/31 10:03:05;;;;;;;;;;;;;;;5.35;61.85;101455.66;4402694;32;32903;-90
2024/01/31 10:05:37;;;;;;;;;;;;;;;5.31;61.15;101453.78;4403483;32;34366;-91
2024/01/31 10:08:06;;;;;;;;;;;;;;;5.25;60.08;101445.88;4405985;32;33364;-91
2024/01/31 10:10:35;;;;;;;;;;;;;;;5.33;59.85;101442.75;4402837;32;33933;-91
2024/01/31 10:13:05;;;;;;;;;;;;;;;5.66;58.40;101436.19;4407882;32;32951;-90
2024/01/31 10:15:37;;;;;;;;;;;;;;;5.42;58.71;101431.91;4406458;32;33649;-93
2024/01/31 10:18:11;;;;;;;;;;;;;;;5.47;58.10;101424.34;4403353;32;33973;-91
2024/01/31 10:20:44;;;;;;;;;;;;;;;5.55;58.11;101423.78;4404641;32;34156;-92
2024/01/31 10:23:20;;;;;;;;;;;;;;;5.62;57.49;101419.72;4410300;32;32934;-92
2024/01/31 10:25:52;;;;;;;;;;;;;;;5.71;56.80;101426.91;4409555;32;34022;-94
2024/01/31 10:28:21;;;;;;;;;;;;;;;5.73;56.70;101427.84;4411940;32;33659;-92
2024/01/31 10:30:53;;;;;;;;;;;;;;;5.79;56.66;101428.03;4410446;32;33824;-90
2024/01/31 10:33:22;;;;;;;;;;;;;;;6.01;55.13;101426.22;4410201;32;33181;-92
2024/01/31 10:35:54;;;;;;;;;;;;;;;5.85;55.58;101420.53;4414306;32;34217;-92
2024/01/31 10:38:26;;;;;;;;;;;;;;;5.94;55.12;101412.25;4408329;32;34263;-94
2024/01/31 10:40:57;;;;;;;;;;;;;;;6.18;52.99;101409.59;4408679;32;34212;-93
2024/01/31 10:43:28;;;;;;;;;;;;;;;5.85;54.54;101399.94;4393983;32;31860;-94
2024/01/31 10:45:57;;;;;;;;;;;;;;;5.90;54.86;101400.94;4411550;32;35381;-95
2024/01/31 10:48:27;;;;;;;;;;;;;;;5.85;55.22;101399.94;4411725;32;34030;-95
2024/01/31 10:51:00;;;;;;;;;;;;;;;6.02;54.56;101392.78;4409676;32;33840;-95
2024/01/31 10:53:30;;;;;;;;;;;;;;;6.31;54.25;101398.88;4411541;32;32559;-95
2024/01/31 11:18:04;;;;;;;;;;;;;;;6.35;52.79;101380.06;4411755;27;35393;-96
2024/01/31 11:21:14;;;;;;;;;;;;;;;6.19;54.75;101383.03;4364868;32;33256;-95
2024/01/31 11:24:44;;;;;;;;;;;;;;;6.05;55.50;101377.41;4364026;32;32519;-96
2024/01/31 11:27:55;;;;;;;;;;;;;;;6.41;53.35;101364.81;4359496;32;33236;-95
2024/01/31 11:31:14;;;;;;;;;;;;;;;6.44;53.63;101370.91;4359746;32;33478;-95
2024/01/31 11:34:26;;;;;;;;;;;;;;;6.32;52.52;101374.84;4365170;32;33684;-95
2024/01/31 11:37:35;;;;;;;;;;;;;;;6.38;52.36;101364.72;4359982;32;32452;-94
2024/01/31 11:40:53;;;;;;;;;;;;;;;6.39;51.58;101368.19;4368867;32;33273;-96
2024/01/31 11:43:43;;;;;;;;;;;;;;;6.40;52.11;101367.34;4380627;32;34301;-96
2024/01/31 11:46:56;;;;;;;;;;;;;;;6.47;51.30;101361.53;4378283;32;33434;-95
2024/01/31 11:49:52;;;;;;;;;;;;;;;6.38;51.73;101359.56;4371612;32;33408;-94
2024/01/31 11:52:26;;;;;;;;;;;;;;;6.44;52.01;101358.00;4375528;32;36775;-95
2024/01/31 11:55:16;;;;;;;;;;;;;;;6.53;52.06;101356.59;4376561;32;33809;-96
2024/01/31 11:58:00;;;;;;;;;;;;;;;6.58;52.42;101356.72;4376677;32;32236;-95
2024/01/31 12:00:52;;;;;;;;;;;;;;;6.72;51.53;101358.00;4372805;32;32325;-96
2024/01/31 12:03:21;;;;;;;;;;;;;;;6.84;50.45;101353.19;4372096;32;35045;-94
2024/01/31 12:06:29;;;;;;;;;;;;;;;6.74;51.08;101343.44;4370839;32;32324;-95
2024/01/31 12:09:05;;;;;;;;;;;;;;;6.86;51.07;101347.19;4373460;32;33379;-95
2024/01/31 12:11:34;;;;;;;;;;;;;;;7.00;51.11;101344.16;4371874;32;34067;-95
2024/01/31 12:14:05;;;;;;;;;;;;;;;6.86;51.06;101337.75;4371645;32;33569;-93
2024/01/31 12:16:41;;;;;;;;;;;;;;;7.06;49.36;101343.50;4369556;32;34271;-95
2024/01/31 12:19:19;;;;;;;;;;;;;;;6.93;50.30;101341.38;4398744;32;31914;-94
2024/01/31 12:21:49;;;;;;;;;;;;;;;6.94;50.46;101320.78;4405836;32;33383;-94
2024/01/31 12:24:19;;;;;;;;;;;;;;;6.88;51.04;101324.91;4401597;32;33370;-94
2024/01/31 12:26:51;;;;;;;;;;;;;;;6.90;50.65;101318.94;4404542;32;33756;-93
2024/01/31 12:29:21;;;;;;;;;;;;;;;6.92;50.67;101314.72;4387596;32;32608;-93
2024/01/31 12:31:50;;;;;;;;;;;;;;;6.83;51.75;101312.75;4405620;32;33898;-92
2024/01/31 12:34:19;;;;;;;;;;;;;;;7.03;51.09;101303.00;4408180;32;34545;-93
2024/01/31 12:36:48;;;;;;;;;;;;;;;7.16;50.72;101313.62;4390347;32;34975;-92
2024/01/31 12:39:20;;;;;;;;;;;;;;;7.02;50.06;101306.38;4386479;32;33241;-93
2024/01/31 12:41:52;;;;;;;;;;;;;;;7.10;50.74;101300.56;4385887;32;34751;-91
2024/01/31 12:44:21;;;;;;;;;;;;;;;7.01;51.09;101303.78;4419930;32;33706;-92
2024/01/31 12:47:04;;;;;;;;;;;;;;;7.14;50.79;101303.25;4417368;32;34021;-92
2024/01/31 12:49:38;;;;;;;;;;;;;;;7.19;50.89;101309.41;4416362;32;32858;-92
2024/01/31 12:52:08;;;;;;;;;;;;;;;7.23;51.08;101294.91;4416831;32;34641;-92
2024/01/31 12:54:40;;;;;;;;;;;;;;;7.26;50.41;101292.38;4408603;32;33525;-91
2024/01/31 12:57:41;;;;;;;;;;;;;;;7.39;50.06;101297.06;4385335;32;33876;-91
2024/01/31 13:00:11;;;;;;;;;;;;;;;7.32;50.59;101296.84;4392243;32;33865;-91
2024/01/31 13:02:44;;;;;;;;;;;;;;;7.29;50.65;101283.84;4398705;32;33799;-92
2024/01/31 13:05:14;;;;;;;;;;;;;;;7.26;50.68;101288.09;4400992;32;34727;-91
2024/01/31 13:07:44;;;;;;;;;;;;;;;7.38;50.30;101287.53;4399101;32;33884;-90
2024/01/31 13:10:17;;;;;;;;;;;;;;;7.37;50.19;101278.06;4405872;32;33029;-91
2024/01/31 13:12:48;;;;;;;;;;;;;;;7.41;50.51;101279.00;4397523;32;33861;-90
2024/01/31 13:15:19;;;;;;;;;;;;;;;7.25;51.71;101273.47;4399993;32;34540;-91
2024/01/31 13:17:48;;;;;;;;;;;;;;;7.30;51.92;101267.50;4398395;32;33986;-90
2024/01/31 13:20:17;;;;;;;;;;;;;;;7.17;51.79;101274.06;4400677;32;32436;-91
2024/01/31 13:22:49;;;;;;;;;;;;;;;7.12;51.81;101279.12;4400194;32;34124;-90
2024/01/31 13:25:22;;;;;;;;;;;;;;;7.19;51.66;101269.84;4400362;32;34997;-90
2024/01/31 13:27:51;;;;;;;;;;;;;;;7.21;51.61;101270.75;4403222;32;34751;-89
2024/01/31 13:30:21;;;;;;;;;;;;;;;7.13;51.34;101273.13;4399829;32;32873;-90
2024/01/31 13:32:50;;;;;;;;;;;;;;;7.16;51.01;101273.22;4404323;32;34485;-90
2024/01/31 13:35:21;;;;;;;;;;;;;;;7.13;50.92;101269.66;4399511;32;33889;-90